Söndag 2024-05-26 08:37:43 vecka 21, namnsdag Vilhelmina, Vilma, imorgon Beda, Blenda  [Huvudmeny]   minomax.se   minomax.se/synop   minomax.se/flyg   wwwinfo.se   medd.nu  -  meddelanden   kakor SYNOP-data Visa SYNOP-temperaturer och data
Land: skriv landsbeteckning, 2 bokstäver, tex. se för Sverige. Sök land Sökord: skriv sökord, eller lämna tomt så visas alla Visar SYNOP för SE- Sverige Land/ IATA Id Mätplats Temp Tid Datum region ICAO SYNOP... WMO-nr ----- ------------------------- ----- ----- ---------- ------ --- ---- -----------------... 02013 Ritsem|Akkastugan 6,5 05:00 2024-05-26 SE-BD AAXX 26031 02013 25/84 /0402 10065 21024 39629 40286 57003 333 60005 90710 91104 90730 91204= 02019 Katterjakk|Lapplandia/Air 4,5 05:00 2024-05-26 SE-BD AAXX 26031 02019 25/83 /1701 10045 21011 39653 40283 57008 333 4/073 60005 90710 91105 90730 91204= 02022 Abisko/Automated 2,6 05:00 2024-05-26 SE-BD AAXX 26031 02022 25970 03302 10026 21014 39800 40288 57007 333 60005 90710 91103 90730 91203= 02024 Stora Sjoefallet|Vietas 3,5 05:00 2024-05-26 SE-BD AAXX 26031 02024 45/84 /3401 10035 21013 333 90710 91102 90730 91202= 02029 Tarfala 6,4 05:00 2024-05-26 SE-BD AAXX 26031 02029 46/// /2906 10064 21051 38946 57005 333 90710 91108 90730 91206=
02031 Rensjoen|Rautas 5,0 05:00 2024-05-26 SE-BD AAXX 26031 02031 25/84 /1901 10050 21002 333 60005 90710 91102 90730 91201= 02036 Nikkaluokta/Automated 3,5 05:00 2024-05-26 SE-BD AAXX 26031 02036 25984 03501 10035 21026 39717 40293 56006 333 60005 90710 91103 90730 91202= 02038 Latnivaara|Ladnivare 7,5 05:00 2024-05-26 SE-BD AAXX 26031 02038 25/84 /1302 10075 20014 333 60005 90710 91104 90730 91202= 02044 Kiruna|Tuolluvaara/Airpor 6,1 05:00 2024-05-26 SE-BD KRN ESNQ AAXX 26031 02044 45/84 /2203 10061 21002 39720 40280 56006= 02045 Kiruna|Tuolluvaara/Geofys /// 05:00 2024-05-26 SE-BD AAXX 2603/ 02045 333 55310 20444 40909=
02049 Gallivare|Malmberget/Priv 5,5 (05:00 2024-05-22) SE-BD GEV ESNG AAXX 22031 02049 27/84 /1901 10055 21011 39799 40239 57005 7//82 333 60005 90710 91104 90730 91202= 99000 Nedre Soppero /// (06:00 2022-11-02) SE-BD OOXX 02054 99000 10000 03600 ////2 26/// ///// 1//// 2//// 3//// 4//// 5//// 6//// 7//// 8//// 9//// 333 55/// ///// 58/// 02055 Naimakka|Siikavuopio 7,1 05:00 2024-05-26 SE-LL AAXX 26031 02055 25984 02501 10071 20003 333 60005 90710 91103 90730 91201= 02063 Asele|Söråsele 18,9 (08:00 2022-06-02) SE-AC AAXX 02064 02063 64870 32460 10189 20178 38887 48485 82542 333 0//00 20183 50331 55068 59030 82616 85360 87080= 02064 Saittarova 9,8 05:00 2024-05-26 SE-BD AAXX 26031 02064 25/84 /2204 10098 21005 333 60005 90710 91108 90730 91205=
02072 Porkalompolo|Parkalompolo 7,8 05:00 2024-05-26 SE-BD AAXX 26031 02072 25983 02102 10078 21021 39896 40279 56008 333 60005 90710 91105 90730 91203= 99000 Orebro|Ekeby-Almby/Ekeby /// (09:00 2022-09-02) SE-T OOXX 02074 99000 10000 03600 ////2 26/// ///// 1//// 2//// 3//// 4//// 5//// 6//// 7//// 8//// 9//// 333 55/// ///// 58/// 02081 Karesuando/Airport 7,0 05:00 2024-05-26 SE-BD AAXX 26031 02081 25/84 /2001 10070 21010 39868 40273 58013 333 60005 90710 91102 90730 91202= 99000 Lannavaara /// (10:00 2022-09-02) SE-BD OOXX 02084 99000 10000 03600 ////2 26/// ///// 1//// 2//// 3//// 4//// 5//// 6//// 7//// 8//// 9//// 333 55/// ///// 58/// 02094 Ungskar|Stenshamn /// (11:00 2023-07-02) SE- AAXX 0209/ 02094=
02095 Pajala|Kungsstrand 7,9 05:00 2024-05-26 SE-BD AAXX 26031 02095 27964 01601 10079 20010 30083 40288 57008 333 60005 90710 91102 90730 91201= 02101 Palkem|Björkfors 2,5 05:00 2024-05-26 SE-AC AAXX 26031 02101 45/84 /0000 10025 20023 39731 40297 54002= 02102 Stekenjokk|Stikkenjokk 8,0 05:00 2024-05-26 SE-AC AAXX 26031 02102 46/// /1406 10080 20043 333 90710 91109 90730 91211= 02103 Hemavan-Skorvfjalle|Portb 10,7 05:00 2024-05-26 SE-AC AAXX 26031 02103 46/// /1405 10107 20036 333 90710 91107 90730 91207= 99000 Hemavan|Portbron /// (11:00 2022-11-02) SE-AC OOXX 02104 99000 10000 03600 ////2 26/// ///// 1//// 2//// 3//// 4//// 5//// 6//// 7//// 8//// 9//// 333 55/// ///// 58///
02110 Gielas|Svallgonäs 4,8 05:00 2024-05-26 SE-AC AAXX 26031 02110 25/83 /0000 10048 20031 333 60005 90710 91103 90730 91202= 99000 Norraker|Saxåmon /// (12:00 2022-11-02) SE-AC OOXX 02114 99000 10000 03600 ////2 26/// ///// 1//// 2//// 3//// 4//// 5//// 6//// 7//// 8//// 9//// 333 55/// ///// 58/// 02119 Kvikkjokk Arrenjarka A|Nj 3,0 05:00 2024-05-26 SE-BD AAXX 26031 02119 25984 31601 10030 20003 39903 40297 50001 333 60005 83/71 90710 91102 90730 91202= 02121 Mierkenis|Vuoggatjålme 0,5 05:00 2024-05-26 SE-BD AAXX 26031 02121 25/84 /3102 10005 21018 39547 40305 57002 333 60005 90710 91104 90730 91204= 02124 Arjeplog|Sakkavare 9,2 05:00 2024-05-26 SE-BD AAXX 26031 02124 25984 01702 10092 20027 39769 40291 52002 333 60005 90710 91105 90730 91203=
02126 Gunnarn|Bastuträsk/Airpor 8,7 05:00 2024-05-26 SE-AC ESPD AAXX 26031 02126 25984 01701 10087 20040 39961 40299 52004 333 60005 90710 91102 90730 91201= 02135 Buresjoen 9,4 05:00 2024-05-26 SE-AC AAXX 26031 02135 25984 11201 10094 20030 333 60005 81/70 90710 91102 90730 91202= 02141 Tjakaape|Nausta 8,6 05:00 2024-05-26 SE-BD AAXX 26031 02141 25984 02102 10086 20028 39595 40290 50001 333 60005 91005 90710 91105 90710 91202= 99000 Abraur|Suddesjaur /// (16:00 2022-10-02) SE-BD OOXX 02144 99000 10000 03600 ////2 26/// ///// 1//// 2//// 3//// 4//// 5//// 6//// 7//// 8//// 9//// 333 55/// ///// 58/// 02147 Malaa-Braennan|Släppträsk 9,3 05:00 2024-05-26 SE-AC AAXX 26031 02147 25/84 /1401 10093 21010 333 60005 90710 91102 90730 91202=
02149 Arvidsjaur|Fjällbonäs 8,7 05:00 2024-05-26 SE-BD AAXX 26031 02149 25984 01102 10087 20001 39834 40300 50002 333 60005 90710 91103 90730 91203= 02151 Jokkmokk|Koskats/Jokkmokk 7,1 05:00 2024-05-26 SE-BD AAXX 26031 02151 25983 01502 10071 20029 39954 40292 50002 333 60005 91002 90710 91102 90710 91202= 02154 Vidsel|Nästräsk/AFB 7,4 05:00 2024-05-26 SE-BD ESPE AAXX 26031 02154 25984 01301 10074 20026 30077 40302 50004 333 60005 91002 90710 91102 90710 91201= 02161 Nattavaara 7,9 05:00 2024-05-26 SE-BD AAXX 26031 02161 25983 01801 10079 21002 333 60005 90710 91104 90730 91202= 99000 Palkem|Pålkem /// (18:00 2022-10-02) SE-BD OOXX 02164 99000 10000 03600 ////2 26/// ///// 1//// 2//// 3//// 4//// 5//// 6//// 7//// 8//// 9//// 333 55/// ///// 58///
02171 Boden|Avaheden/Army Air B 7,0 05:00 2024-05-26 SE-BD ESPG AAXX 26031 02171 25983 00000 10070 20046 30272 40303 53004 333 60005 91001 90710 91101 90710 91201= 02173 Aelvsbyn|Högheden 4,7 05:00 2024-05-26 SE-BD AAXX 26031 02173 269// 00000 10047 20001 333 69935 90710 91101 90730 91202= 02174 Lakatraesk|Lakaträsk 7,8 05:00 2024-05-26 SE-BD AAXX 26031 02174 25984 01601 10078 21016 30068 40298 52003 333 60005 90710 91103 90730 91201= 02176 Ronnskar|Jävrebodarna/Aut 7,3 05:00 2024-05-26 SE- AAXX 26031 02176 25984 00000 10073 20016 333 60005 90710 91101 90730 91202= 02181 Svartbyn|Mjölan/Automated 5,8 05:00 2024-05-26 SE-BD AAXX 26031 02181 25/84 /1801 10058 20038 30224 40302 5/003 333 60005 90710 91102 90730 91201=
02183 Lulea Sol|Kallax /// 05:00 2024-05-26 SE-BD AAXX 2603/ 02183 333 55310 20352= 02184 Paharova 9,6 05:00 2024-05-26 SE-BD AAXX 26031 02184 25/84 /1802 10096 21013 30010 40289 57002 333 60005 90710 91104 90730 91202= 02186 Kallax|Svartöstaden/Lulea 7,9 05:00 2024-05-26 SE-BD LLA ESPA AAXX 26031 02186 25983 01301 10079 20050 30281 40306 53006 333 60005 91002 90710 91102 90710 91201= 02188 Rodkallen|Storbrändön/Aut 7,5 05:00 2024-05-26 SE- AAXX 26031 02188 25984 01401 10075 20030 333 60005 90710 91101 90730 91202= 02191 Storoen|Storön 8,4 05:00 2024-05-26 SE- AAXX 26031 02191 25984 01302 10084 20061 30301 40307 52006 333 60005 90710 91102 90730 91202=
02197 Haparanda|Sundholmen/Hapa 5,9 05:00 2024-05-26 SE-BD AAXX 26031 02197 25984 01901 10059 20057 30287 40306 52005 333 60005 90710 91102 90730 91201= 02199 Ylinenjaervi|Ylinenjärvi /// 05:00 2024-05-26 SE-BD AAXX 26031 02199 NIL= 02202 Tornetrask Lake|Laimoluok /// (00:00 2022-12-12) SE-BD AAXX 11234 02202 11049 21058 30018 40091 52003 80/// 333 55300 20000 60005 91003 90710 91104= 99000 Nikkaluokta /// (22:00 2022-10-02) SE-BD OOXX 02204 99000 10000 03600 ////2 26/// ///// 1//// 2//// 3//// 4//// 5//// 6//// 7//// 8//// 9//// 333 55/// ///// 58/// 02205 Storlien Sol /// 05:00 2024-05-26 SE-Z AAXX 2603/ 02205 NIL=
02207 Storlien-Visjovalen|Visjö 10,3 05:00 2024-05-26 SE-Z AAXX 26031 02207 25981 00000 10103 20088 39567 40261 52005 333 60005 90710 91102 90730 91203= 02209 Sylarna|Tjallingen/Automa 8,6 05:00 2024-05-26 SE-Z AAXX 26031 02209 46/// ///// 10086 20080= 02210 Blahammaren A|Blåhammaren 9,0 05:00 2024-05-26 SE-Z AAXX 26031 02210 46/// ///// 10090= 02214 Trillevallen|Sefrivatn /// (23:00 2024-05-02) SE-18 AAXX 0221/ 02214= 02219 Gaddede A|Gussvattnet 11,5 05:00 2024-05-26 SE-Z AAXX 26031 02219 25/84 /1003 10115 20051 39617 40275 52003 333 60005 90710 91107 90730 91205=
02221 Korsvattnet|Mjölkvattnet 9,1 05:00 2024-05-26 SE-Z AAXX 26031 02221 25/84 /0403 10091 20064 333 60005 90710 91104 90730 91204= 99000 Follinge-Vagskalet|Vägskä /// (23:00 2022-11-02) SE-Z OOXX 02224 99000 10000 03600 ////2 26/// ///// 1//// 2//// 3//// 4//// 5//// 6//// 7//// 8//// 9//// 333 55/// ///// 58/// 02226 Ostersund-Åre Airport 9,7 05:00 2024-05-26 SE-Z OSD ESNZ AAXX 26031 02226 45484 /1205 10097 20047 39827 40281 55001 333 88/15= 02229 Östersund Sol|Västerhus /// 05:00 2024-05-26 SE-Z AAXX 2603/ 02229 333 55300 20093= 02230 Gubbhögen/Högbynäs 8,4 05:00 2024-05-26 SE-Z AAXX 26031 02230 25/84 /0000 10084 20042 333 60005 90710 91102 90730 91202=
02231 Föllinge 10,1 05:00 2024-05-26 SE-Z AAXX 26031 02231 25584 81102 10101 20040 333 60005 88/21 90710 91104 90730 91202= 99000 Stromsund/Näsviken /// (00:00 2022-11-03) SE-Z OOXX 02234 99000 10000 03600 ////2 26/// ///// 1//// 2//// 3//// 4//// 5//// 6//// 7//// 8//// 9//// 333 55/// ///// 58/// 02236 Hallhåxåsen 8,4 05:00 2024-05-26 SE-Z AAXX 26031 02236 25984 00901 10084 20008 39837 40294 53002 333 60005 90710 91103 90730 91202= 02242 Hoting|Andersnäset 7,9 05:00 2024-05-26 SE-Z AAXX 26031 02242 25/81 /0000 10079 20061 333 60005 90710 91101 90730 91202= 02243 Krångede|Bölen 4,5 05:00 2024-05-26 SE-Y AAXX 26031 02243 25/84 /0000 10045 20015 30031 40305 53003 333 60005 90710 91101 90730 91201=
02245 Vilhelmina|Dalasjö/Automa 7,0 05:00 2024-05-26 SE-AC AAXX 26031 02245 25/84 /0000 10070 20046 39875 40303 52005 333 60005 90710 91100 90730 91203= 02247 Krangede|Döviken/Automate 5,1 05:00 2024-05-26 SE-Z AAXX 26031 02247 25982 00000 10051 20005 30068 40297 55000 333 60005 90710 91101 90730 91201= 02254 Åsele/Söråsele 4,4 05:00 2024-05-26 SE-AC AAXX 26031 02254 25983 00000 10044 20026 39924 40308 53002 333 60005 90710 91101 90730 91201= 02260 Västmarkum|Östmarkum 6,8 05:00 2024-05-26 SE-Y AAXX 26031 02260 25/84 /2802 10068 20005 30118 40295 55003 333 60005 90710 91103 90730 91202= 02261 Lycksele|Hälsingfors 8,8 (08:00 2023-09-05) SE-AC AAXX 05061 02261 05/75 /3002 10088 20042 39857 40111 50004 69902 333 10148 20073 60005 90710 91107 90730 91203=
02263 Fredrika|Fristad 5,9 05:00 2024-05-26 SE-AC AAXX 26031 02263 25984 20000 10059 20043 333 60005 82/69 90710 91100 90730 91200= 02265 Hemling 4,0 05:00 2024-05-26 SE-Y AAXX 26031 02265 25984 00000 10040 20017 30076 40306 53001 333 60005 90710 91101 90730 91201= 02267 Örnskoldsvik/Airport 7,6 05:00 2024-05-26 SE-Y OER ESNO AAXX 26031 02267 45/84 /3602 10076 21020 30163 40296 55001= 02269 Skagsudde|Skeppsmalen/Aut 10,0 05:00 2024-05-26 SE-Y AAXX 26031 02269 25984 00305 10100 21019 333 60005 90710 91108 90730 91205= 02271 Norsjö|Finnäs 22,0 (17:00 2024-05-18) SE-AC AAXX 18151 02271 25/82 /2503 10220 20006 39730 40083 58016 333 60005 90710 91108 90730 91205=
02282 Petisträsk 5,4 05:00 2024-05-26 SE-AC AAXX 26031 02282 25983 00000 10054 20039 333 60005 90710 91101 90730 91201= 02283 Umeå Robacksdalen|Teg /// 05:00 2024-05-26 SE-AC AAXX 2603/ 02283 333 55309 20253 40977= 02284 Järnäsklubb 9,2 05:00 2024-05-26 SE-AC AAXX 26031 02284 25984 00203 10092 20003 30286 40295 53003 333 60005 90710 91106 90730 91204= 02286 Umeå/Airport 8,3 05:00 2024-05-26 SE-AC UME ESNU AAXX 26031 02286 45/84 /3502 10083 21002 30290 40299 54001= 02287 Holmön 6,8 05:00 2024-05-26 SE- AAXX 26031 02287 25984 00503 10068 20025 30289 40299 52001 333 60005 90710 91105 90730 91204=
02293 Skellefteå/Airport 5,6 05:00 2024-05-26 SE-AC SFT ESNS AAXX 26031 02293 45/83 /2801 10056 20050 30247 40307 50003= 02297 Bjuröklubb/Lighthouse 7,4 05:00 2024-05-26 SE- AAXX 26031 02297 25984 00504 10074 20039 30258 40304 52003 333 60005 90710 91104 90730 91205= 02297 Bjuröklubb 7,2 (11:00 2023-10-02) SE- AAXX 02091 02297 27384 8//04 10072 20060 30079 40124 52002 7//82 333 60005 85/06 90710 91106 90730 91206= 02307 Idre|Idre Fjäll/Automated 10,9 05:00 2024-05-26 SE-W AAXX 26031 02307 46/// /1105 10109 20064 333 90710 91106 90730 91206= 02308 Tannas|Tännäs/Automated 11,0 05:00 2024-05-26 SE-Z AAXX 26031 02308 25168 71002 10110 20088 39417 40269 53005 333 60005 87/03 90710 91105 90730 91202=
02316 Särna 22,3 (20:00 2024-05-25) SE-W AAXX 25181 02316 46/// ///// 10223 333 10257 20155= 02317 Dravagen 10,6 05:00 2024-05-26 SE-Z AAXX 26031 02317 27156 80902 10106 20098 7101/ 333 60005 88/03 90710 91103 90730 91203= 02319 Börtnan 10,2 05:00 2024-05-26 SE-Z AAXX 26031 02319 25/81 /0000 10102 20060 333 60005 90710 91102 90730 91202= 02321 Älvdalen|Rot 10,4 05:00 2024-05-26 SE-W AAXX 26031 02321 27465 70000 10104 20099 39963 40269 52006 333 60005 87/13 90710 91101 90730 91202= 02325 Klövsjöhöjden|Sångbäcken 8,4 05:00 2024-05-26 SE-Z AAXX 26031 02325 27/01 /1704 10084 20082 39333 40284 54000 73331 333 60005 90710 91105 90730 91204=
02327 Sveg|Sundsätt/Sveg A 10,0 05:00 2024-05-26 SE-Z AAXX 26031 02327 27/36 /0804 10100 20087 39848 40281 52006 7101/ 333 60005 90710 91106 90730 91205= 02329 Hamra 8,8 05:00 2024-05-26 SE-X AAXX 26031 02329 27/01 /0601 10088 20087 39735 40284 52005 73031 333 60005 90710 91103 90730 91202= 02331 Hunge 6,3 05:00 2024-05-26 SE-Z AAXX 26031 02331 25984 00501 10063 20020 333 60005 90710 91102 90730 91204= 02338 Edsbyn|Gammelhomna/Automa 10,2 05:00 2024-05-26 SE-X AAXX 26031 02338 27105 90801 10102 20101 30053 40279 50002 73431 333 60005 89/02 90710 91102 90730 91202= 02343 Torpshammar|Rombäck 3,6 05:00 2024-05-26 SE-Y AAXX 26031 02343 25984 00000 10036 20001 30167 40293 57002 333 60005 90710 91101 90730 91201=
02347 Delsbo|Åkre 7,7 05:00 2024-05-26 SE-X AAXX 26031 02347 25979 02801 10077 20040 30196 40285 52002 333 60005 90710 91102 90730 91202= 02355 Kuggören|Bålsön/Automated 8,7 05:00 2024-05-26 SE- AAXX 26031 02355 25384 83407 10087 20055 30268 40280 55001 333 60005 88/09 90710 91108 90730 91208= 02366 Sundsvall|Midlanda/Härnös 7,7 05:00 2024-05-26 SE-Y SDL ESNN AAXX 26031 02366 45/84 /3003 10077 21004 30283 40289 55002= 02368 Brämön/Sanna/Automated 9,1 05:00 2024-05-26 SE- AAXX 26031 02368 25482 83304 10091 20039 333 60005 88/16 90710 91105 90730 91205= 02382 Lungö|Uddhamn/Automated 10,1 05:00 2024-05-26 SE- AAXX 26031 02382 25/84 /0105 10101 21002 333 60005 90710 91108 90730 91208=
02403 Naven|Skaven 13,2 05:00 2024-05-26 SE- AAXX 26031 02403 25968 00601 10132 20117 333 60005 90710 91103 90730 91202= 02407 Malung A|Grimsmyrheden 12,7 05:00 2024-05-26 SE-W AAXX 26031 02407 25267 70803 10127 20106 39895 40259 52007 333 60005 87/05 90710 91105 90730 91203= 02408 Blomskog|Vammerviken/Auto 14,3 05:00 2024-05-26 SE- AAXX 26031 02408 25980 00901 10143 20127 30020 40225 52005 333 60005 90710 91103 90730 91202= 02411 Arvika|Långvak 13,4 05:00 2024-05-26 SE-S AAXX 26031 02411 27971 01501 10134 20129 30151 40232 52005 333 60005 90710 91102 90730 91201= 02417 Pålgrunden|Tallbacken /// 05:00 2024-05-26 SE-S AAXX 26031 02417 46/// /0705 333 90710 91106 90730 91205=
02418 Karlstad/Airport 14,4 (11:00 2023-10-02) SE-S KSD ESSQ AAXX 02091 02418 45480 /2304 10144 20128 39982 40109 50002 333 81/11 88/14= 02419 Sookojan|Nolgård /// 05:00 2024-05-26 SE-S AAXX 2603/ 02419 333 55300 20050= 02423 Sunne|Ulvsby 9,5 05:00 2024-05-26 SE-S AAXX 26031 02423 27928 00000 10095 20091 7101/ 333 60005 90710 91101 90730 91201= 02426 Gustavsfors 9,5 05:00 2024-05-26 SE-S AAXX 26031 02426 25973 00000 10095 20090 30022 40252 52010 333 60005 90710 91102 90730 91201= 02429 Daglösen|Gränäset 14,1 05:00 2024-05-26 SE-US AAXX 26031 02429 27965 00901 10141 20129 333 60005 90710 91103 90730 91201=
02431 Kloten 11,5 05:00 2024-05-26 SE-T AAXX 26031 02431 27107 90703 10115 20113 39915 40257 50004 73431 333 60005 89/02 90710 91105 90730 91203= 02432 Orebro|Tredingskullen/Aut 16,0 (08:00 2023-09-05) SE-T AAXX 05061 02432 45482 /2405 10160 20133 30098 40166 55005 333 10199 20153 88/15= 02435 Borlänge|Romme/AFB 10,4 05:00 2024-05-26 SE-W BLE ESSD AAXX 26031 02435 47158 /0802 10104 20100 30081 40268 52003 710// 333 88/02= 02437 Aspa /// 05:00 2024-05-26 SE-U ESQO AAXX 2603/ 02437 333 55300 20023= 02440 Åmot 9,7 05:00 2024-05-26 SE-X AAXX 26031 02440 26100 83301 10097 20093 333 60005 88/02 90710 91101 90730 91202=
02441 Mora|Vinäs 15,6 (08:00 2023-09-05) SE-W AAXX 05061 02441 05982 82601 10156 20123 39897 40129 55002 60002 333 10206 20140 60005 70000 88/63 90710 91105 90730 91203 02443 Enköping/Åkerby 11,4 05:00 2024-05-26 SE-C AAXX 26031 02443 27117 80402 10114 20114 30229 40259 52004 72011 333 60005 88/02 91004 90710 91105 90710 91203= 02449 Eskilstuna|Flacksta/AB 13,4 05:00 2024-05-26 SE-D EKT ESSU AAXX 26031 02449 47257 80502 10134 20114 30236 40251 52007 7101/ 333 88/04 90710 91104 90730 91203= 02450 Eggegrund|Långsand 9,9 05:00 2024-05-26 SE- AAXX 26031 02450 46/// /3506 10099 20075 333 90710 91108 90730 91207= 02452 Kilsbergen-Suttarboda|Sve 13,0 05:00 2024-05-26 SE-T AAXX 26031 02452 27150 60704 10130 20128 7101/ 333 60005 86/02 90710 91108 90730 91205=
02453 Gävle|Varva/Automated 9,3 05:00 2024-05-26 SE-X AAXX 26031 02453 27261 83502 10093 20093 30252 40274 50001 7//32 333 60005 88/06 90710 91104 90730 91204= 02456 Films Kyrkby|Kyrkbyn 9,7 05:00 2024-05-26 SE-C AAXX 26031 02456 27106 93601 10097 20095 30226 40269 52004 73333 333 60005 89/02 90710 91104 90730 91202= 02458 Uppsala|Ärna/AFB 10,0 05:00 2024-05-26 SE-C ESCM AAXX 26031 02458 27108 90205 10100 20100 30239 40264 50003 73331 333 60005 91007 90710 91107 90710 91205= 02460 Stockholm|Kimsta/Arlanda 11,0 05:00 2024-05-26 SE-AB ARN ESSA AAXX 26031 02460 47015 /0203 10110 20110 30203 40254 54002 720// 333 88/01= 02462 Uppsala Universitet|Almtu 11,5 05:00 2024-05-26 SE-C AAXX 26031 02462 26/// /0101 10115 29099 30226 40264 333 60005 90710 91103=
02464 Stockholm/Bromma 13,4 05:00 2024-05-26 SE-AB BMA ESSB AAXX 26031 02464 45160 /0202 10134 20125 30237 40254 55001 333 87/03= 02468 Stora Spånsberget|Spånsfä 8,8 05:00 2024-05-26 SE-W AAXX 26031 02468 27/02 /0703 10088 20072 7343/ 333 60005 90710 91105 90730 91203= 02469 Tullinge|Eklundshov 9,9 05:00 2024-05-26 SE-AB AAXX 26031 02469 27/05 /0201 10099 20097 73332 333 60005 90710 91101 90730 91201= 02476 Floda|Stav/Automated 12,5 05:00 2024-05-26 SE-D AAXX 26031 02476 27963 00401 10125 20118 30205 40244 52002 333 60005 90710 91103 90730 91202= 02481 Sala|Isätra 10,2 05:00 2024-05-26 SE-U AAXX 26031 02481 27023 90405 10102 20100 30192 40263 50005 71011 333 60005 89/01 90710 91108 90730 91205=
02482 Kerstinbo|Sälja 9,4 05:00 2024-05-26 SE-X AAXX 26031 02482 27134 80403 10094 21243 30200 40271 52004 704// 333 60005 88/02 90710 91107 90730 91204= 02483 Stockholm Kth|Stocksund/A /// 05:00 2024-05-26 SE-AB AAXX 2603/ 02483 333 55300 20070= 02484 Stockholm|Stocksund/Obser 13,6 05:00 2024-05-26 SE-AB AAXX 26031 02484 26/// ///// 10136 20125 30199 40254 50002 333 60005= 02485 Stockholm|Stocksund/Autom 0,3 (07:00 2019-10-30) SE-AB AAXX 30061 02485 12/70 82701 10003 21030 30205 40271 60002 333 10037 20007= 02486 Adelsö/Hovgården 13,1 05:00 2024-05-26 SE- AAXX 26031 02486 27/60 /0404 10131 20122 333 60005 90710 91106 90730 91204=
02487 Stavsnäs|Eriksberg/Automa 12,7 05:00 2024-05-26 SE- AAXX 26031 02487 46/// /0203 10127 20121 333 90710 91106 90730 91203= 02488 Örskar|Askskär/Automated 10,3 05:00 2024-05-26 SE- AAXX 26031 02488 27370 53505 10103 20101 30256 40266 54001 7//32 333 60005 85/09 90710 91107 90730 91207= 02489 Hårsfjarden|Berga 12,1 05:00 2024-05-26 SE- AAXX 26031 02489 25962 00102 10121 20121 30243 40248 56001 333 60005 91003 90710 91103 90710 91202= 02490 Svanberga 10,7 05:00 2024-05-26 SE-AB AAXX 26031 02490 27110 90301 10107 20106 30241 40261 50002 72032 333 60005 89/03 90710 91103 90730 91202= 02493 Söderarm|Österäng 9,3 05:00 2024-05-26 SE- AAXX 26031 02493 47980 53408 10093 20091 333 85/64 90710 91109 90730 91208=
02496 Svenska Högarna|Kudoxa/Li 9,8 (08:00 2021-06-01) SE- AAXX 01060 02496 02984 00507 10098 333 10100 20081 31/// 70000= 02498 Svenska Högarna A|Kudoxa 9,2 05:00 2024-05-26 SE- AAXX 26031 02498 27967 03505 10092 20091 30236 40252 5/001 333 60005 90710 91108 90730 91207= 02500 Nordkoster|Nord-Koster 16,6 05:00 2024-05-26 SE- AAXX 26031 02500 269// 01004 10166 20142 30170 40211 52008 333 60005 90710 91105 90730 91205= 02501 Vaderöarna|Sjöviken 17,1 05:00 2024-05-26 SE- AAXX 26031 02501 46/// /1405 10171 20137 30183 40212 52008 333 90710 91106 90730 91206= 02505 Måseskar|Käringön 16,3 05:00 2024-05-26 SE- AAXX 26031 02505 25971 01104 10163 20148 333 60005 90710 91106 90730 91207=
02513 Göteborg|Torp/Automated 14,7 05:00 2024-05-26 SE- AAXX 26031 02513 25/78 /0000 10147 20129 30209 40213 51006 333 60005 90710 91102 90730 91202= 02516 Vinga|Fotö/Lighthouse 16,0 05:00 2024-05-26 SE- AAXX 26031 02516 25966 01304 10160 20141 30188 40212 52007 333 60005 90710 91106 90730 91207= 02518 Nidingen|Vässingsö/Lighth 15,7 05:00 2024-05-26 SE- AAXX 26031 02518 469// 01004 10157 20146 333 90710 91105 90730 91207= 02520 Såtenas|Såtenäs Villastad 14,0 05:00 2024-05-26 SE- AAXX 26031 02520 25989 00000 10140 20115 30154 40220 53005 333 60005 91002 90710 91103 90710 91202= 02526 Göteborg/Landvetter 13,5 05:00 2024-05-26 SE- GOT ESGG AAXX 26031 02526 45/83 /1003 10135 20113 30030 40215 51004=
02526 Goteborg|Skulltorp/Upper 13,4 (08:00 2023-10-02) SE- AAXX 02061 02526 47157 /2404 10134 20133 39960 40144 55003 781// 333 10138 20087 82/02 84/05 86/07 87/11= 02536 Rångedala|Vevelhult/Autom 14,1 05:00 2024-05-26 SE- AAXX 26031 02536 25963 01302 10141 20118 39863 40218 54000 333 60005 90710 91105 90730 91203= 02539 Ullared|Spetsebo 10,1 05:00 2024-05-26 SE-N AAXX 26031 02539 27925 00000 10101 20099 72032 333 60005 90710 91100 90730 91200= 02540 Kroppefjäll-Grånan|Årbol 13,4 05:00 2024-05-26 SE- AAXX 26031 02540 25972 00000 10134 20124 333 60005 90710 91101 90730 91201= 02542 Hallum|Hällum 12,8 05:00 2024-05-26 SE- AAXX 26031 02542 25971 00801 10128 20114 30135 40221 52004 333 60005 90710 91102 90730 91202=
02544 Karlsborg|Gräshult 12,3 05:00 2024-05-26 SE- AAXX 26031 02544 25960 00704 10123 20121 30123 40237 53003 333 60005 91005 90710 91105 90710 91204= 02545 Axstal|Hanken 13,1 05:00 2024-05-26 SE- AAXX 26031 02545 25965 00605 10131 30130 40237 53002 333 60005 91006 90710 91106 90710 91205= 02546 Gardsjö|Korterud 13,3 05:00 2024-05-26 SE-T AAXX 26031 02546 26900 00902 10133 20120 39980 40234 53004 333 60005 90710 91104 90730 91203= 02548 Visingsö|Ed 11,1 05:00 2024-05-26 SE-F AAXX 26031 02548 25/70 /2301 10111 20079 333 60005 90710 91104 90730 91203= 02549 Tomtabacken|Stora Åkerhul 12,8 05:00 2024-05-26 SE-F AAXX 26031 02549 25975 0//// 10128 20091 333 60005 90710 91104 90730 91203=
02550 Jönkoping/Airport 9,3 05:00 2024-05-26 SE-F JKG ESGJ AAXX 26031 02550 45/79 /3601 10093 20093 39954 40228 50001= 02552 Malexander|Mo 11,4 05:00 2024-05-26 SE-E AAXX 26031 02552 27956 00000 10114 20087 7101/ 333 60005 90710 91101 90730 91202= 02554 Kettstaka|Hulta 12,8 05:00 2024-05-26 SE-E AAXX 26031 02554 25964 01103 10128 20103 333 60005 90710 91105 90730 91204= 02556 Hagshult|Hemmershult/AFB 11,9 05:00 2024-05-26 SE-F ESMV AAXX 26031 02556 25971 00101 10119 20112 30017 40222 57002 333 60005 91002 90710 91102 90710 91202= 02557 Horn|Äleby 7,9 05:00 2024-05-26 SE-E AAXX 26031 02557 250// 90000 10079 20054 30122 40234 57002 333 60005 89/01 90710 91101 90730 91201=
02558 Kolmarden-Strömsfors|Strö 11,8 05:00 2024-05-26 SE-E AAXX 26031 02558 27958 00502 10118 20112 30054 40241 51005 7101/ 333 60005 90710 91104 90730 91203= 02559 Gladhammar|Ringsbo 9,4 05:00 2024-05-26 SE-H AAXX 26031 02559 27/56 /0000 10094 20092 71011 333 60005 90710 91101 90730 91201= 02561 Kvarn|Prästtomta 9,5 05:00 2024-05-26 SE-E AAXX 26031 02561 27944 00000 10095 20086 30155 40243 53004 71031 333 60005 91000 90710 91101 90710 91200= 02562 Linköping|Jägarvallen/Mal 11,0 05:00 2024-05-26 SE-E AAXX 26031 02562 27950 00402 10110 20109 30125 40240 53002 7103/ 333 60005 91003 90710 91103 90710 91203= 02563 Harstena|Missjö 11,3 05:00 2024-05-26 SE- AAXX 26031 02563 27958 00301 10113 20106 30213 40235 53001 7101/ 333 60005 90710 91103 90730 91203=
02565 Hultsfred|Målilla/AFB 9,8 05:00 2024-05-26 SE-H HLF ESSF AAXX 26031 02565 27943 00301 10098 20095 30110 40228 57003 72032 333 60005 90710 91102 90730 91201= 02567 Landsort 12,7 05:00 2024-05-26 SE- AAXX 26031 02567 27963 00406 10127 20118 30220 40244 54001 333 60005 90710 91106 90730 91206= 02570 Norrköping|Östra Eneby/Br /// (20:00 2024-04-22) SE-E AAXX 22181 02570 63003 10313 20241 30042 40102 60001 84570 333 56600 58015 60007 84620= 02574 Norrköping|Fiskeby 11,9 05:00 2024-05-26 SE-E AAXX 26031 02574 27958 00601 10119 20114 30188 40239 55001 7101/ 333 60005 90710 91102 90730 91202= 02575 Ölandsnorraudde|Nabbelund 12,0 05:00 2024-05-26 SE- AAXX 26031 02575 27960 00605 10120 20113 30226 40231 53003 333 60005 90710 91106 90730 91205=
02589 Gotska Sandön|Lauters/Lig 12,6 05:00 2024-05-26 SE- AAXX 26031 02589 27967 00702 10126 20111 30224 40245 53006 333 60005 90710 91106 90730 91204= 02587 Fårösund-Ar 12,8 05:00 2024-05-26 SE- AAXX 26031 02587 27964 50902 10128 20113 333 60005 85/61 90710 91103 90730 91205= 02589 Gotska Sandön|Lauters 14,4 (11:00 2023-10-02) SE- AAXX 02091 02589 25379 72204 10144 20124 30133 40153 58005 333 60005 86/08 90710 91109 90730 91206= 02590 Visby/Airport 13,3 05:00 2024-05-26 SE-I VBY ESSV AAXX 26031 02590 45/67 /0903 10133 20117 30177 40237 51007= 02598 Östergarnsholm|Katthammar 13,1 05:00 2024-05-26 SE- AAXX 26031 02598 46/// /0804 10131 20126 333 90710 91105 90730 91205=
02604 Halmstad|Karlsro/AFB 17,0 (08:00 2023-09-05) SE-N HAD ESMT AAXX 05061 02604 45/72 /2404 10170 20159 30196 40233 54000 333 10177 20146= 02605 Hallands|Kalvskärslid/Vad 14,1 05:00 2024-05-26 SE- AAXX 26031 02605 27964 00502 10141 20134 333 60005 90710 91103 90730 91204= 02606 Kullen|Mölle/Lighthouse /// (01:00 2023-01-18) SE- AAXX 18004 02606 11015 21033 39797 49944 51007 60001 80/// 333 55/// 20297 55300 20000 60005 91008 90710 91108= 02607 Ängelholm|Barkåkra/AFB|F- 12,9 05:00 2024-05-26 SE- ESDB AAXX 26031 02607 45/70 /0902 10129 20122 30180 40202 58006= 02611 Helsingborg|Västra Ramlös 11,2 05:00 2024-05-26 SE- AAXX 26031 02611 27/56 /0101 10112 20108 30146 40200 56005 7101/ 333 60005 90710 91102 90730 91202=
02615 Falsterbo|Falsterbovång/F 13,0 05:00 2024-05-26 SE- AAXX 26031 02615 27928 00103 10130 20125 30189 40193 58005 71021 333 60005 90710 91103 90730 91204= 02616 Falsterbo|Falsterbovång/L 13,9 (08:00 2021-06-01) SE- AAXX 01060 02616 01/57 73504 10139 20126 30191 40197 53003 71022 85032 333 10171 20129 30/// 70000 85364 87258= 02618 Torup|Torpup|Tranabo/Torp 12,7 05:00 2024-05-26 SE-N AAXX 26031 02618 25/69 /0202 10127 20117 30051 40212 57003 333 60005 90710 91103 90730 91202= 02622 Ljungby|Hovdinge 8,8 05:00 2024-05-26 SE-G AAXX 26031 02622 27961 00000 10088 20080 333 60005 90710 91101 90730 91201= 02623 Hörby|Slagtofta 13,3 05:00 2024-05-26 SE- AAXX 26031 02623 27962 00702 10133 20117 333 60005 90710 91107 90730 91204=
02625 Skillinge|Gislövhammar/Au 13,0 05:00 2024-05-26 SE- AAXX 26031 02625 27959 00103 10130 20119 30186 40192 56007 7101/ 333 60005 90710 91106 90730 91205= 02628 Hano|Hanö/Automated 13,4 05:00 2024-05-26 SE- AAXX 26031 02628 25970 00606 10134 20120 333 60005 90710 91108 90730 91207= 02629 Hästveda|Hästveda 11,4 05:00 2024-05-26 SE- AAXX 26031 02629 25960 00401 10114 20109 30085 40209 56004 333 60005 91002 90710 91103 90710 91202= 02632 Utklippan|Stenshamn 13,0 05:00 2024-05-26 SE- AAXX 26031 02632 46/// /0606 10130 20121 333 90710 91107 90730 91208= 02635 Malmö|Husie/Automated 12,0 05:00 2024-05-26 SE- AAXX 26031 02635 27/41 /0301 10120 20110 71011 333 60005 90710 91102 90730 91202=
02636 Malmö|Beddinge Läge/Sturu 13,6 05:00 2024-05-26 SE- MMX ESMS AAXX 26031 02636 45/66 /0702 10136 20121 30105 40191 56008= 02648 Vaxjö|Nöbbele/Kronoberg 12,8 05:00 2024-05-26 SE-G VXO ESMX AAXX 26031 02648 25/76 /0802 10128 20109 39975 40214 57005 333 60005 90710 91103 90730 91203= 02644 Ölandssödraudde|Ottenby/A 13,9 05:00 2024-05-26 SE- AAXX 26031 02644 25969 70505 10139 20129 30206 40210 53002 333 60005 87/61 90710 91107 90730 91206= 02648 Växjö|Telestad 14,4 (08:00 2023-09-05) SE-G AAXX 05061 02648 07/63 /2602 10144 20135 39987 40226 55000 60002 333 10169 20121 60005 70000 90710 91105 90730 91203= 02661 Kosta|Lövsjö 10,7 05:00 2024-05-26 SE-G AAXX 26031 02661 27958 00000 10107 20104 39947 40224 56005 71011 333 60005 91001 90710 91101 90710 91200=
02664 Ronneby|Häggatorp/AFB 12,9 05:00 2024-05-26 SE-K RNB ESDF AAXX 26031 02664 25980 00402 10129 20120 30137 40208 56002 333 60005 91004 90710 91104 90710 91203= 02667 Söderstjerna|Drottningskä 14,9 05:00 2024-05-26 SE- AAXX 26031 02667 25980 00404 10149 20130 30204 40207 57002 333 60005 91005 90710 91105 90710 91204= 02670 Kalmar|Elverslösa/Airport 11,7 05:00 2024-05-26 SE-H ESDC AAXX 26031 02670 47/50 /0201 10117 20117 30215 40221 55000 710//= 02679 Hoburg|Burge/Hoburg A 14,7 (11:00 2023-10-02) SE-I AAXX 02091 02679 27261 82205 10147 20140 30128 40172 58006 333 60005 88/05 90710 91107 90730 91205= (209 rader visades) Du kan lägga till id-beteckningen först på raden i valfri Lista 1 - 5 [top] ↕°C [1] [2] [3] [4] [5] ??? LISTOR 00-nr NOT MEDD MT METAR SYNOP SE SE-AB SE-C SE-D SE-E SE-F SE-G SE-H SE-I SE-K SE-M SE-N SE-O SE-P SE-T SE-U SE-W SE-X SE-Y SE-Z SE-AC SE-BD rådata flyg flyg_osd